KHSD

Sundance Airport

Oklahoma City, Oklahoma, USA
METAR KHSD 171420Z AUTO 00000KT 10SM CLR M01/M03 A3030 RMK A01
Observed Flight Rules
Dec-17 @ 14:20 UTC (29 minutes ago) Visual Flight Rules
Visibility Clouds
10 miles
  • Clear skies
Temperatures Readings
Current -1°C / 30°F
Dewpoint -3°C / 27°F
Humidity 86%
Altimeter 30.3" Hg
Pressure 1026 hPa
Elevation 364
METAR KHSD 171420Z AUTO 00000KT 10SM CLR M01/M03 A3030 RMK A01
Observed Flight Rules
Dec-17 @ 14:20 UTC
(29 minutes ago)
VFR
Clouds
  • Clear skies
Temperature Dewpoint
-1°C / 30°F -3°C / 27°F
Humidity Altimeter Pressure
86% 30.3" Hg 1026 hPa